createdAt,value
2022-09-09T00:04:05.569Z,100242.20
2022-09-09T00:09:22.927Z,100240.00
2022-09-09T00:14:49.982Z,100237.60
2022-09-09T00:20:28.356Z,100228.60
2022-09-09T00:25:58.967Z,100222.00
2022-09-09T00:31:32.022Z,100220.00
2022-09-09T00:36:39.355Z,100217.60
2022-09-09T00:42:09.933Z,100218.40
2022-09-09T00:47:31.463Z,100208.20
2022-09-09T00:52:43.786Z,100202.80
2022-09-09T00:57:53.423Z,100199.20
2022-09-09T01:03:34.057Z,100199.80
2022-09-09T01:09:17.281Z,100194.20
2022-09-09T01:14:35.646Z,100198.40
2022-09-09T01:19:44.904Z,100198.00
2022-09-09T01:25:36.130Z,100208.60
2022-09-09T01:30:43.371Z,100209.80
2022-09-09T01:36:02.207Z,100208.60
2022-09-09T01:41:06.170Z,100208.00
2022-09-09T01:46:09.939Z,100210.20
2022-09-09T01:51:13.366Z,100212.60
2022-09-09T01:56:47.813Z,100208.60
2022-09-09T02:02:14.754Z,100215.80
2022-09-09T02:07:28.337Z,100216.00
2022-09-09T02:12:32.699Z,100217.00
2022-09-09T02:17:40.078Z,100217.00
2022-09-09T02:22:48.878Z,100223.40
2022-09-09T02:27:53.085Z,100219.80
2022-09-09T02:33:00.097Z,100223.20
2022-09-09T02:38:10.835Z,100229.40
2022-09-09T02:43:19.882Z,100223.00
2022-09-09T02:49:10.505Z,100233.40
2022-09-09T02:54:33.823Z,100236.00
2022-09-09T02:59:38.121Z,100231.00
2022-09-09T03:04:45.088Z,100227.60
2022-09-09T03:09:49.013Z,100237.00
2022-09-09T03:14:52.345Z,100244.20
2022-09-09T03:19:56.373Z,100248.80
2022-09-09T03:24:59.786Z,100247.60
2022-09-09T03:30:05.052Z,100251.60
2022-09-09T03:35:09.599Z,100235.20
2022-09-09T03:40:14.374Z,100234.00
2022-09-09T03:45:18.315Z,100226.80
2022-09-09T03:50:21.669Z,100233.40
2022-09-09T03:55:24.980Z,100240.60
2022-09-09T04:00:28.346Z,100233.80
2022-09-09T04:05:31.808Z,100242.40
2022-09-09T04:10:38.400Z,100234.00
2022-09-09T04:15:41.915Z,100241.20
2022-09-09T04:20:52.907Z,100223.20
2022-09-09T04:25:58.676Z,100232.00
2022-09-09T04:31:16.351Z,100233.00
2022-09-09T04:36:21.044Z,100231.20
2022-09-09T04:41:24.890Z,100225.00
2022-09-09T04:46:28.360Z,100225.00
2022-09-09T04:51:32.389Z,100223.00
2022-09-09T04:56:35.746Z,100222.80
2022-09-09T05:01:47.689Z,100228.20
2022-09-09T05:06:51.584Z,100220.20
2022-09-09T05:11:55.009Z,100227.20
2022-09-09T05:16:59.337Z,100229.20
2022-09-09T05:22:02.644Z,100233.80
2022-09-09T05:27:07.349Z,100236.60
2022-09-09T05:32:15.206Z,100241.60
2022-09-09T05:37:19.618Z,100240.20
2022-09-09T05:42:22.962Z,100250.20
2022-09-09T05:47:28.929Z,100238.20
2022-09-09T05:52:33.165Z,100245.80
2022-09-09T05:57:36.501Z,100247.40
2022-09-09T06:02:40.245Z,100250.00
2022-09-09T06:07:45.965Z,100255.20
2022-09-09T06:12:49.497Z,100248.80
2022-09-09T06:17:57.009Z,100248.20
2022-09-09T06:23:00.748Z,100250.80
2022-09-09T06:28:04.124Z,100244.00
2022-09-09T06:33:07.543Z,100242.40
2022-09-09T06:38:10.855Z,100252.60
2022-09-09T06:43:14.165Z,100248.20
2022-09-09T06:48:17.577Z,100247.00
2022-09-09T06:53:21.069Z,100259.40
2022-09-09T06:58:24.706Z,100253.20
2022-09-09T07:03:28.809Z,100267.00
2022-09-09T07:08:33.034Z,100258.80
2022-09-09T07:13:36.714Z,100267.40
2022-09-09T07:18:41.540Z,100276.60
2022-09-09T07:23:45.773Z,100280.40
2022-09-09T07:28:50.419Z,100284.40
2022-09-09T07:33:54.677Z,100284.40
2022-09-09T07:39:04.008Z,100286.60
2022-09-09T07:44:22.631Z,100287.00
2022-09-09T07:49:30.894Z,100281.60
2022-09-09T07:54:36.225Z,100279.80
2022-09-09T07:59:39.773Z,100285.40
2022-09-09T08:04:43.295Z,100288.00
2022-09-09T08:09:48.066Z,100298.40
2022-09-09T08:14:55.434Z,100295.20
2022-09-09T08:19:59.576Z,100294.20
2022-09-09T08:25:03.502Z,100293.40
2022-09-09T08:30:08.073Z,100286.60
2022-09-09T08:35:11.453Z,100287.20
2022-09-09T08:40:30.022Z,100290.40
2022-09-09T08:45:51.357Z,100296.80
2022-09-09T08:51:03.108Z,100306.20
2022-09-09T08:56:19.595Z,100304.80
2022-09-09T09:02:26.177Z,100306.20
2022-09-09T09:07:48.377Z,100310.00
2022-09-09T09:12:52.351Z,100317.40
2022-09-09T09:17:56.576Z,100322.60
2022-09-09T09:23:05.210Z,100331.80
2022-09-09T09:28:19.102Z,100332.40
2022-09-09T09:33:51.523Z,100330.00
2022-09-09T09:44:28.532Z,100340.40
2022-09-09T09:49:32.346Z,100338.00
2022-09-09T09:54:40.583Z,100331.20
2022-09-09T09:59:45.007Z,100345.40
2022-09-09T10:04:48.931Z,100341.60
2022-09-09T10:09:58.483Z,100345.40
2022-09-09T10:15:20.254Z,100341.60
2022-09-09T10:20:47.214Z,100335.80
2022-09-09T10:25:59.565Z,100344.00
2022-09-09T10:31:30.559Z,100353.60
2022-09-09T10:36:34.255Z,100359.00
2022-09-09T10:42:07.064Z,100347.00
2022-09-09T10:47:40.124Z,100362.20
2022-09-09T10:53:11.108Z,100357.60
2022-09-09T10:58:48.283Z,100359.40
2022-09-09T11:04:28.330Z,100369.80
2022-09-09T11:09:43.829Z,100364.00
2022-09-09T11:14:53.959Z,100368.80
2022-09-09T11:19:58.876Z,100377.40
2022-09-09T11:25:26.366Z,100387.40
2022-09-09T11:31:05.117Z,100379.40
2022-09-09T11:36:36.364Z,100382.20
2022-09-09T11:41:40.290Z,100382.60
2022-09-09T11:46:47.283Z,100387.00
2022-09-09T11:51:50.901Z,100387.20
2022-09-09T11:56:54.897Z,100390.00
2022-09-09T12:02:11.553Z,100393.40
2022-09-09T12:07:47.228Z,100387.40
2022-09-09T12:12:50.740Z,100390.80
2022-09-09T12:18:03.910Z,100384.40
2022-09-09T12:23:36.917Z,100386.20
2022-09-09T12:29:14.826Z,100391.20
2022-09-09T12:34:53.788Z,100396.20
2022-09-09T12:40:16.487Z,100388.60
2022-09-09T12:45:26.224Z,100391.20
2022-09-09T12:50:34.871Z,100396.00
2022-09-09T12:55:40.462Z,100391.40
2022-09-09T13:00:56.538Z,100400.20
2022-09-09T13:06:13.251Z,100388.00
2022-09-09T13:11:27.197Z,100396.80
2022-09-09T13:16:37.812Z,100396.20
2022-09-09T13:21:45.795Z,100398.40
2022-09-09T13:26:58.423Z,100390.40
2022-09-09T13:32:09.115Z,100388.20
2022-09-09T13:37:44.233Z,100383.60
2022-09-09T13:42:47.778Z,100382.60
2022-09-09T13:47:56.481Z,100382.80
2022-09-09T13:53:00.722Z,100383.60
2022-09-09T13:58:06.785Z,100385.80
2022-09-09T14:03:10.139Z,100380.40
2022-09-09T14:08:26.315Z,100375.20
2022-09-09T14:13:29.778Z,100379.40
2022-09-09T14:18:33.430Z,100374.00
2022-09-09T14:23:37.207Z,100379.60
2022-09-09T14:28:57.266Z,100390.60
2022-09-09T14:34:01.616Z,100399.00
2022-09-09T14:39:05.985Z,100399.80
2022-09-09T14:44:09.912Z,100386.60
2022-09-09T14:49:14.249Z,100389.80
2022-09-09T14:54:17.968Z,100388.20
2022-09-09T14:59:23.535Z,100398.20
2022-09-09T15:04:26.827Z,100395.80
2022-09-09T15:09:30.431Z,100406.20
2022-09-09T15:14:34.087Z,100400.80
2022-09-09T15:19:38.704Z,100406.80
2022-09-09T15:24:42.137Z,100417.00
2022-09-09T15:29:45.651Z,100416.00
2022-09-09T15:34:49.230Z,100421.00
2022-09-09T15:39:52.654Z,100427.80
2022-09-09T15:44:57.015Z,100423.00
2022-09-09T15:50:00.436Z,100423.80
2022-09-09T15:55:04.471Z,100422.20
2022-09-09T16:00:10.010Z,100425.40
2022-09-09T16:05:13.762Z,100424.60
2022-09-09T16:10:17.161Z,100422.80
2022-09-09T16:15:23.823Z,100419.60
2022-09-09T16:20:27.272Z,100423.00
2022-09-09T16:25:30.623Z,100422.60
2022-09-09T16:30:33.992Z,100411.00
2022-09-09T16:35:41.502Z,100408.20
2022-09-09T16:40:46.007Z,100414.00
2022-09-09T16:45:49.399Z,100397.20
2022-09-09T16:50:52.766Z,100412.60
2022-09-09T16:55:56.184Z,100422.40
2022-09-09T17:01:00.987Z,100416.40
2022-09-09T17:06:10.485Z,100415.60
2022-09-09T17:11:20.239Z,100422.80
2022-09-09T17:16:27.802Z,100430.40
2022-09-09T17:21:33.565Z,100425.80
2022-09-09T17:26:37.550Z,100429.20
2022-09-09T17:31:42.159Z,100440.60
2022-09-09T17:36:45.613Z,100443.80
2022-09-09T17:41:49.768Z,100447.80
2022-09-09T17:46:53.409Z,100455.80
2022-09-09T17:51:57.390Z,100469.40
2022-09-09T17:57:00.800Z,100459.00
2022-09-09T18:02:05.990Z,100463.60
2022-09-09T18:07:09.505Z,100473.20
2022-09-09T18:12:13.201Z,100474.40
2022-09-09T18:17:16.642Z,100470.20
2022-09-09T18:22:20.097Z,100468.20
2022-09-09T18:27:23.338Z,100460.00
2022-09-09T18:32:27.462Z,100464.40
2022-09-09T18:37:34.348Z,100456.00
2022-09-09T18:42:37.770Z,100461.40
2022-09-09T18:47:42.717Z,100475.60
2022-09-09T18:52:46.238Z,100478.80
2022-09-09T18:57:50.964Z,100475.40
2022-09-09T19:02:54.383Z,100473.80
2022-09-09T19:07:58.009Z,100487.80
2022-09-09T19:13:01.464Z,100495.80
2022-09-09T19:18:06.004Z,100492.00
2022-09-09T19:23:10.108Z,100496.80
2022-09-09T19:28:13.643Z,100496.00
2022-09-09T19:33:17.548Z,100494.20
2022-09-09T19:38:21.275Z,100487.00
2022-09-09T19:43:25.185Z,100486.00
2022-09-09T19:48:32.123Z,100478.00
2022-09-09T19:53:51.779Z,100468.20
2022-09-09T19:58:57.631Z,100467.60
2022-09-09T20:04:05.081Z,100465.80
2022-09-09T20:09:14.821Z,100461.60
2022-09-09T20:14:18.572Z,100461.20
2022-09-09T20:19:22.362Z,100450.80
2022-09-09T20:24:26.406Z,100449.20
2022-09-09T20:29:29.907Z,100447.40
2022-09-09T20:34:33.328Z,100444.20
2022-09-09T20:39:37.510Z,100455.20
2022-09-09T20:44:40.967Z,100448.20
2022-09-09T20:49:44.597Z,100449.00
2022-09-09T20:54:48.102Z,100462.40
2022-09-09T20:59:52.315Z,100467.80
2022-09-09T21:04:55.748Z,100474.60
2022-09-09T21:09:59.264Z,100472.00
2022-09-09T21:15:02.690Z,100467.20
2022-09-09T21:20:07.564Z,100462.80
2022-09-09T21:25:11.885Z,100467.60
2022-09-09T21:30:15.384Z,100463.60
2022-09-09T21:35:19.409Z,100461.80
2022-09-09T21:40:23.240Z,100465.80
2022-09-09T21:45:28.182Z,100465.20
2022-09-09T21:50:31.437Z,100466.00
2022-09-09T21:55:37.244Z,100456.00
2022-09-09T22:00:48.973Z,100454.40
2022-09-09T22:05:54.159Z,100449.80
2022-09-09T22:10:58.357Z,100457.00
2022-09-09T22:16:08.487Z,100466.40
2022-09-09T22:21:16.965Z,100475.00
2022-09-09T22:26:20.682Z,100472.60
2022-09-09T22:31:26.119Z,100464.60
2022-09-09T22:36:32.014Z,100455.40
2022-09-09T22:41:35.633Z,100452.60
2022-09-09T22:46:40.110Z,100446.80
2022-09-09T22:51:43.894Z,100440.40
2022-09-09T22:56:53.668Z,100439.80
2022-09-09T23:01:59.233Z,100435.00
2022-09-09T23:07:03.678Z,100433.00
2022-09-09T23:12:09.786Z,100430.00
2022-09-09T23:17:14.895Z,100416.40
2022-09-09T23:22:18.305Z,100412.20
2022-09-09T23:27:22.025Z,100421.80
2022-09-09T23:32:25.336Z,100421.60
2022-09-09T23:37:29.977Z,100413.00
2022-09-09T23:42:33.704Z,100400.80
2022-09-09T23:47:37.012Z,100402.40
2022-09-09T23:52:44.888Z,100404.40
2022-09-09T23:57:48.756Z,100404.00
